Terminal Aerodrome Forecast
Issued by NWS

Home | Current Version | Previous Version | Text Only | Print | Product List | Glossary Off
Versions: 1 2 3 4 5 6 7 8 9 10 11 12 13 14 15 16 17

000
FTUS43 KBIS 252200 AAB
TAFJMS
TAF AMD
KJMS 252251Z 2523/2618 13014KT 1/2SM SN OVC008
     FM260400 04018G26KT 1SM -SN BLSN OVC010
     FM260800 36019KT 4SM -SN BR OVC015
     FM261200 35019KT P6SM OVC015=

USA.gov is the U.S. government's official web portal to all federal, state and local government web resources and services.